createdAt,value
2018-12-03T00:01:12.601Z,5.57
2018-12-03T00:03:41.496Z,5.57
2018-12-03T00:06:10.513Z,5.63
2018-12-03T00:08:39.498Z,9.17
2018-12-03T00:11:08.749Z,7.60
2018-12-03T00:13:37.776Z,6.33
2018-12-03T00:16:07.029Z,9.60
2018-12-03T00:18:36.123Z,9.37
2018-12-03T00:21:05.109Z,7.97
2018-12-03T00:23:33.919Z,8.97
2018-12-03T00:26:02.803Z,9.80
2018-12-03T00:28:31.690Z,7.50
2018-12-03T00:31:00.829Z,7.37
2018-12-03T00:33:29.685Z,8.00
2018-12-03T00:35:58.571Z,6.83
2018-12-03T00:38:27.417Z,7.07
2018-12-03T00:40:57.109Z,5.67
2018-12-03T00:43:26.089Z,5.27
2018-12-03T00:45:55.149Z,3.53
2018-12-03T00:48:24.089Z,2.57
2018-12-03T00:50:53.554Z,3.20
2018-12-03T00:53:22.612Z,2.70
2018-12-03T00:55:51.533Z,2.07
2018-12-03T00:58:20.458Z,1.43
2018-12-03T01:00:49.283Z,3.17
2018-12-03T01:03:18.207Z,2.27
2018-12-03T01:05:47.372Z,1.40
2018-12-03T01:08:16.405Z,1.23
2018-12-03T01:10:45.381Z,3.53
2018-12-03T01:13:14.469Z,4.37
2018-12-03T01:15:43.609Z,3.43
2018-12-03T01:18:12.872Z,2.97
2018-12-03T01:20:41.952Z,2.83
2018-12-03T01:23:11.075Z,4.30
2018-12-03T01:25:40.112Z,2.57
2018-12-03T01:28:10.417Z,4.00
2018-12-03T01:30:40.079Z,3.27
2018-12-03T01:33:09.192Z,3.77
2018-12-03T01:35:38.511Z,4.00
2018-12-03T01:38:07.652Z,1.43
2018-12-03T01:40:36.595Z,1.80
2018-12-03T01:43:05.913Z,3.83
2018-12-03T01:45:34.894Z,2.10
2018-12-03T01:48:07.509Z,4.97
2018-12-03T01:50:36.673Z,2.53
2018-12-03T01:53:05.891Z,5.30
2018-12-03T01:55:34.935Z,2.50
2018-12-03T01:58:04.069Z,3.63
2018-12-03T02:00:33.030Z,2.30
2018-12-03T02:03:02.130Z,3.73
2018-12-03T02:05:30.997Z,2.80
2018-12-03T02:08:00.134Z,5.07
2018-12-03T02:10:28.894Z,3.30
2018-12-03T02:12:57.775Z,3.97
2018-12-03T02:15:27.791Z,4.60
2018-12-03T02:17:57.230Z,5.80
2018-12-03T02:20:26.400Z,2.77
2018-12-03T02:22:55.327Z,5.67
2018-12-03T02:25:24.236Z,3.33
2018-12-03T02:27:54.271Z,2.20
2018-12-03T02:30:23.959Z,6.27
2018-12-03T02:32:53.607Z,4.83
2018-12-03T02:35:22.555Z,4.70
2018-12-03T02:37:51.609Z,4.47
2018-12-03T02:40:20.610Z,3.60
2018-12-03T02:42:49.776Z,2.87
2018-12-03T02:45:19.052Z,2.87
2018-12-03T02:47:48.044Z,3.03
2018-12-03T02:50:17.229Z,4.77
2018-12-03T02:52:46.110Z,4.93
2018-12-03T02:55:15.161Z,4.83
2018-12-03T02:57:44.248Z,8.07
2018-12-03T03:00:16.452Z,2.20
2018-12-03T03:02:45.536Z,4.93
2018-12-03T03:05:15.391Z,4.93
2018-12-03T03:07:44.790Z,3.37
2018-12-03T03:10:15.389Z,3.70
2018-12-03T03:12:44.252Z,2.63
2018-12-03T03:15:14.205Z,3.27
2018-12-03T03:17:43.533Z,4.10
2018-12-03T03:20:13.538Z,2.73
2018-12-03T03:22:42.599Z,3.70
2018-12-03T03:25:12.088Z,2.43
2018-12-03T03:27:41.253Z,4.63
2018-12-03T03:30:13.167Z,4.30
2018-12-03T03:32:42.788Z,5.13
2018-12-03T03:35:13.030Z,4.33
2018-12-03T03:37:42.284Z,1.53
2018-12-03T03:40:13.830Z,3.63
2018-12-03T03:42:43.834Z,4.67
2018-12-03T03:45:16.257Z,2.83
2018-12-03T03:47:45.428Z,4.23
2018-12-03T03:50:14.564Z,3.97
2018-12-03T03:52:43.599Z,4.77
2018-12-03T03:55:12.581Z,1.63
2018-12-03T03:57:41.578Z,3.10
2018-12-03T04:00:15.819Z,1.67
2018-12-03T04:02:44.949Z,2.50
2018-12-03T04:05:15.033Z,2.60
2018-12-03T04:07:45.313Z,3.87
2018-12-03T04:10:14.953Z,4.40
2018-12-03T04:12:45.852Z,2.47
2018-12-03T04:15:15.697Z,2.47
2018-12-03T04:17:44.846Z,2.67
2018-12-03T04:20:18.524Z,1.23
2018-12-03T04:22:50.626Z,2.20
2018-12-03T04:25:19.672Z,1.77
2018-12-03T04:27:55.134Z,3.47
2018-12-03T04:30:24.557Z,1.17
2018-12-03T04:32:53.996Z,2.30
2018-12-03T04:35:24.111Z,2.93
2018-12-03T04:37:52.993Z,3.63
2018-12-03T04:40:21.994Z,2.93
2018-12-03T04:42:50.828Z,2.50
2018-12-03T04:45:19.788Z,2.67
2018-12-03T04:47:49.862Z,2.73
2018-12-03T04:50:20.882Z,1.30
2018-12-03T04:52:49.882Z,1.73
2018-12-03T04:55:19.849Z,2.80
2018-12-03T04:57:49.593Z,1.63
2018-12-03T05:00:19.408Z,1.73
2018-12-03T05:02:50.612Z,1.07
2018-12-03T05:05:19.770Z,2.37
2018-12-03T05:07:48.660Z,0.50
2018-12-03T05:10:18.498Z,1.13
2018-12-03T05:12:48.922Z,0.60
2018-12-03T05:15:17.894Z,3.23
2018-12-03T05:17:47.872Z,0.53
2018-12-03T05:20:18.276Z,2.57
2018-12-03T05:22:47.348Z,1.87
2018-12-03T05:25:19.079Z,1.27
2018-12-03T05:27:45.715Z,0.73
2018-12-03T05:30:16.055Z,0.60
2018-12-03T05:32:45.651Z,0.80
2018-12-03T05:35:19.194Z,1.33
2018-12-03T05:37:48.024Z,0.90
2018-12-03T05:40:31.829Z,1.20
2018-12-03T05:43:00.664Z,1.43
2018-12-03T05:45:29.443Z,0.67
2018-12-03T05:47:58.309Z,1.80
2018-12-03T05:50:27.333Z,1.37
2018-12-03T05:52:56.433Z,2.23
2018-12-03T05:55:25.480Z,0.83
2018-12-03T05:57:54.586Z,1.17
2018-12-03T06:00:24.802Z,2.33
2018-12-03T06:02:53.835Z,3.67
2018-12-03T06:05:23.046Z,2.13
2018-12-03T06:07:51.969Z,2.27
2018-12-03T06:10:21.979Z,1.87
2018-12-03T06:12:52.207Z,2.27
2018-12-03T06:15:21.893Z,4.77
2018-12-03T06:17:52.230Z,1.83
2018-12-03T06:20:22.062Z,0.90
2018-12-03T06:22:52.196Z,1.43
2018-12-03T06:25:28.995Z,1.67
2018-12-03T06:27:58.035Z,1.23
2018-12-03T06:30:27.989Z,1.53
2018-12-03T06:32:56.814Z,1.57
2018-12-03T06:35:25.758Z,1.73
2018-12-03T06:37:54.910Z,2.83
2018-12-03T06:40:31.927Z,4.97
2018-12-03T06:43:00.943Z,2.80
2018-12-03T06:45:30.340Z,1.77
2018-12-03T06:48:01.860Z,2.70
2018-12-03T06:50:30.862Z,1.67
2018-12-03T06:52:59.894Z,3.70
2018-12-03T06:55:28.912Z,3.33
2018-12-03T06:57:58.037Z,5.03
2018-12-03T07:00:30.348Z,2.10
2018-12-03T07:02:59.602Z,1.77
2018-12-03T07:05:28.463Z,1.90
2018-12-03T07:07:58.657Z,1.57
2018-12-03T07:10:28.187Z,1.97
2018-12-03T07:13:00.044Z,2.60
2018-12-03T07:15:31.070Z,2.50
2018-12-03T07:18:00.380Z,2.93
2018-12-03T07:20:29.295Z,2.90
2018-12-03T07:22:58.139Z,2.30
2018-12-03T07:25:27.212Z,4.47
2018-12-03T07:27:56.052Z,3.60
2018-12-03T07:30:26.121Z,1.87
2018-12-03T07:32:55.383Z,2.70
2018-12-03T07:35:24.674Z,1.80
2018-12-03T07:37:54.896Z,2.30
2018-12-03T07:40:23.834Z,1.93
2018-12-03T07:42:52.811Z,3.07
2018-12-03T07:45:23.022Z,2.60
2018-12-03T07:47:51.952Z,1.80
2018-12-03T07:50:22.063Z,3.40
2018-12-03T07:52:51.159Z,2.97
2018-12-03T07:55:22.190Z,4.97
2018-12-03T07:57:57.887Z,4.23
2018-12-03T08:00:28.552Z,5.00
2018-12-03T08:02:59.006Z,3.70
2018-12-03T08:05:28.027Z,4.63
2018-12-03T08:07:57.304Z,2.80
2018-12-03T08:10:26.609Z,4.60
2018-12-03T08:12:55.697Z,5.33
2018-12-03T08:15:24.999Z,7.40
2018-12-03T08:18:02.374Z,4.43
2018-12-03T08:20:34.602Z,3.63
2018-12-03T08:23:07.199Z,3.10
2018-12-03T08:25:36.227Z,3.47
2018-12-03T08:28:05.102Z,7.33
2018-12-03T08:30:34.065Z,7.73
2018-12-03T08:33:03.002Z,4.57
2018-12-03T08:35:31.977Z,5.37
2018-12-03T08:38:03.318Z,5.50
2018-12-03T08:40:30.026Z,8.07
2018-12-03T08:42:58.903Z,6.60
2018-12-03T08:45:27.795Z,3.63
2018-12-03T08:47:56.750Z,4.43
2018-12-03T08:50:26.899Z,6.40
2018-12-03T08:52:56.973Z,8.97
2018-12-03T08:55:25.834Z,5.13
2018-12-03T08:57:54.971Z,5.13
2018-12-03T09:00:28.003Z,10.43
2018-12-03T09:03:05.738Z,5.43
2018-12-03T09:05:39.717Z,7.23
2018-12-03T09:08:10.106Z,6.50
2018-12-03T09:10:39.773Z,5.90
2018-12-03T09:13:16.132Z,5.93
2018-12-03T09:15:50.139Z,5.07
2018-12-03T09:18:19.221Z,5.27
2018-12-03T09:20:48.905Z,5.27
2018-12-03T09:23:17.762Z,5.60
2018-12-03T09:25:46.678Z,6.00
2018-12-03T09:28:15.560Z,5.00
2018-12-03T09:30:49.729Z,5.23
2018-12-03T09:33:18.797Z,5.30
2018-12-03T09:35:47.643Z,4.60
2018-12-03T09:38:16.558Z,4.83
2018-12-03T09:40:45.409Z,5.03
2018-12-03T09:43:14.255Z,4.97
2018-12-03T09:45:43.239Z,4.00
2018-12-03T09:48:12.057Z,6.03
2018-12-03T09:50:41.024Z,5.00
2018-12-03T09:53:10.063Z,4.17
2018-12-03T09:55:39.291Z,4.70
2018-12-03T09:58:10.302Z,3.57
2018-12-03T10:00:39.009Z,5.70
2018-12-03T10:03:18.401Z,5.17
2018-12-03T10:05:50.483Z,4.00
2018-12-03T10:08:24.906Z,4.83
2018-12-03T10:10:57.931Z,6.73
2018-12-03T10:13:28.194Z,3.60
2018-12-03T10:15:57.419Z,6.10
2018-12-03T10:18:26.519Z,5.93
2018-12-03T10:20:59.062Z,6.50
2018-12-03T10:23:28.044Z,10.57
2018-12-03T10:25:58.447Z,8.53
2018-12-03T10:28:27.739Z,6.13
2018-12-03T10:30:57.602Z,8.03
2018-12-03T10:33:31.833Z,7.70
2018-12-03T10:36:02.662Z,12.60
2018-12-03T10:38:33.982Z,7.03
2018-12-03T10:41:09.682Z,5.37
2018-12-03T10:43:39.143Z,8.63
2018-12-03T10:46:09.793Z,9.50
2018-12-03T10:48:38.996Z,6.77
2018-12-03T10:51:13.818Z,9.47
2018-12-03T10:53:42.685Z,8.80
2018-12-03T10:56:12.014Z,7.27
2018-12-03T10:58:48.880Z,6.83
2018-12-03T11:01:23.887Z,6.63
2018-12-03T11:03:58.040Z,8.00
2018-12-03T11:06:27.110Z,5.77
2018-12-03T11:08:56.099Z,7.97
2018-12-03T11:11:25.038Z,9.33
2018-12-03T11:13:54.177Z,12.40
2018-12-03T11:16:27.309Z,6.10
2018-12-03T11:18:56.777Z,5.67
2018-12-03T11:21:26.526Z,5.60
2018-12-03T11:23:55.704Z,9.43
2018-12-03T11:26:30.546Z,10.13
2018-12-03T11:28:59.911Z,8.50
2018-12-03T11:31:30.451Z,6.30
2018-12-03T11:33:59.440Z,4.83
2018-12-03T11:36:48.090Z,6.07
2018-12-03T11:39:20.374Z,4.07
2018-12-03T11:41:52.462Z,8.27
2018-12-03T11:44:21.445Z,7.43
2018-12-03T11:46:50.459Z,10.83
2018-12-03T11:49:19.333Z,4.83
2018-12-03T11:51:48.313Z,7.50
2018-12-03T11:54:17.305Z,8.80
2018-12-03T11:56:46.223Z,10.70
2018-12-03T11:59:15.106Z,7.17
2018-12-03T12:01:44.266Z,9.90
2018-12-03T12:04:13.262Z,9.43
2018-12-03T12:06:42.258Z,9.10
2018-12-03T12:09:12.630Z,8.17
2018-12-03T12:11:42.256Z,4.80
2018-12-03T12:14:26.482Z,8.07
2018-12-03T12:16:55.516Z,5.63
2018-12-03T12:19:24.438Z,8.03
2018-12-03T12:21:53.668Z,8.33
2018-12-03T12:24:22.565Z,8.63
2018-12-03T12:26:53.290Z,8.23
2018-12-03T12:29:22.302Z,7.20
2018-12-03T12:31:51.379Z,6.77
2018-12-03T12:34:20.759Z,7.83
2018-12-03T12:36:49.935Z,6.77
2018-12-03T12:39:19.058Z,5.67
2018-12-03T12:41:48.123Z,9.57
2018-12-03T12:44:17.034Z,7.53
2018-12-03T12:46:47.999Z,6.13
2018-12-03T12:49:17.175Z,5.07
2018-12-03T12:51:52.053Z,5.60
2018-12-03T12:54:21.138Z,7.73
2018-12-03T12:56:51.891Z,7.33
2018-12-03T12:59:21.155Z,7.03
2018-12-03T13:01:50.248Z,5.47
2018-12-03T13:04:19.458Z,8.77
2018-12-03T13:06:48.460Z,9.30
2018-12-03T13:09:17.587Z,9.90
2018-12-03T13:11:46.547Z,4.57
2018-12-03T13:14:15.702Z,6.50
2018-12-03T13:16:44.538Z,6.10
2018-12-03T13:19:13.709Z,7.43
2018-12-03T13:21:42.664Z,5.67
2018-12-03T13:24:11.794Z,9.53
2018-12-03T13:26:42.491Z,6.83
2018-12-03T13:29:11.567Z,7.97
2018-12-03T13:31:41.033Z,7.30
2018-12-03T13:34:16.364Z,6.93
2018-12-03T13:36:45.477Z,9.77
2018-12-03T13:39:14.565Z,6.03
2018-12-03T13:41:43.576Z,5.67
2018-12-03T13:44:12.605Z,8.40
2018-12-03T13:46:41.452Z,7.13
2018-12-03T13:49:10.382Z,5.33
2018-12-03T13:51:39.375Z,7.23
2018-12-03T13:54:08.628Z,7.53
2018-12-03T13:56:42.318Z,5.23
2018-12-03T13:59:17.709Z,3.73
2018-12-03T14:01:46.566Z,6.23
2018-12-03T14:04:16.118Z,5.13
2018-12-03T14:08:58.619Z,5.07
2018-12-03T14:11:49.779Z,3.10
2018-12-03T14:14:26.071Z,3.77
2018-12-03T14:17:07.372Z,4.53
2018-12-03T14:19:37.375Z,8.03
2018-12-03T14:22:14.353Z,5.17
2018-12-03T14:24:43.497Z,8.80
2018-12-03T14:27:12.557Z,4.70
2018-12-03T14:29:41.500Z,6.40
2018-12-03T14:32:21.806Z,5.27
2018-12-03T14:34:55.154Z,4.50
2018-12-03T14:37:32.781Z,3.30
2018-12-03T14:40:06.310Z,6.97
2018-12-03T14:42:43.969Z,5.07
2018-12-03T14:45:13.184Z,5.77
2018-12-03T14:47:41.942Z,8.23
2018-12-03T14:50:11.600Z,6.70
2018-12-03T14:52:40.499Z,5.93
2018-12-03T14:55:09.394Z,7.77
2018-12-03T14:57:38.339Z,6.97
2018-12-03T15:00:10.211Z,7.13
2018-12-03T15:02:39.312Z,6.27
2018-12-03T15:05:08.681Z,8.60
2018-12-03T15:07:37.992Z,6.07
2018-12-03T15:10:08.842Z,6.27
2018-12-03T15:12:37.799Z,5.63
2018-12-03T15:15:09.242Z,4.90
2018-12-03T15:17:40.265Z,5.50
2018-12-03T15:20:09.442Z,4.67
2018-12-03T15:22:38.495Z,4.67
2018-12-03T15:25:09.974Z,5.77
2018-12-03T15:27:39.274Z,7.33
2018-12-03T15:30:09.833Z,5.33
2018-12-03T15:32:39.036Z,6.87
2018-12-03T15:35:09.849Z,8.07
2018-12-03T15:37:39.059Z,7.80
2018-12-03T15:40:12.334Z,5.70
2018-12-03T15:42:41.684Z,7.10
2018-12-03T15:45:12.263Z,6.13
2018-12-03T15:47:41.412Z,4.23
2018-12-03T15:50:10.365Z,5.60
2018-12-03T15:52:39.325Z,4.67
2018-12-03T15:55:09.146Z,6.07
2018-12-03T15:57:38.233Z,4.03
2018-12-03T16:00:10.126Z,3.23
2018-12-03T16:02:39.192Z,5.57
2018-12-03T16:05:13.018Z,3.07
2018-12-03T16:07:42.239Z,7.07
2018-12-03T16:10:13.103Z,3.30
2018-12-03T16:12:42.700Z,2.93
2018-12-03T16:15:11.815Z,2.13
2018-12-03T16:17:41.947Z,2.77
2018-12-03T16:20:11.687Z,3.90
2018-12-03T16:22:40.836Z,3.03
2018-12-03T16:25:09.933Z,2.80
2018-12-03T16:27:39.009Z,3.03
2018-12-03T16:30:11.618Z,4.50
2018-12-03T16:32:41.729Z,5.50
2018-12-03T16:35:10.597Z,3.77
2018-12-03T16:37:39.589Z,2.53
2018-12-03T16:40:09.199Z,4.07
2018-12-03T16:42:38.955Z,4.87
2018-12-03T16:45:08.923Z,2.53
2018-12-03T16:47:38.138Z,1.87
2018-12-03T16:50:08.991Z,2.17
2018-12-03T16:52:38.317Z,3.77
2018-12-03T16:55:07.465Z,2.17
2018-12-03T16:57:36.356Z,2.90
2018-12-03T17:00:09.916Z,2.10
2018-12-03T17:02:39.283Z,2.30
2018-12-03T17:05:08.238Z,2.53
2018-12-03T17:07:37.282Z,2.47
2018-12-03T17:10:12.134Z,3.53
2018-12-03T17:12:41.312Z,2.20
2018-12-03T17:15:10.312Z,2.50
2018-12-03T17:17:39.540Z,3.73
2018-12-03T17:20:31.589Z,4.00
2018-12-03T17:23:20.557Z,1.70
2018-12-03T17:25:49.581Z,2.07
2018-12-03T17:28:19.060Z,3.43
2018-12-03T17:30:48.477Z,2.87
2018-12-03T17:33:17.589Z,2.07
2018-12-03T17:35:46.833Z,3.20
2018-12-03T17:38:15.990Z,1.73
2018-12-03T17:40:45.380Z,4.83
2018-12-03T17:43:14.486Z,3.67
2018-12-03T17:45:43.748Z,2.90
2018-12-03T17:48:12.950Z,3.03
2018-12-03T17:50:43.274Z,4.53
2018-12-03T17:53:12.444Z,3.60
2018-12-03T17:55:41.908Z,2.70
2018-12-03T17:58:12.290Z,3.67
2018-12-03T18:00:41.489Z,4.83
2018-12-03T18:03:10.543Z,4.20
2018-12-03T18:05:39.912Z,2.87
2018-12-03T18:08:10.275Z,4.47
2018-12-03T18:10:40.699Z,3.87
2018-12-03T18:13:09.999Z,3.87
2018-12-03T18:15:39.364Z,3.37
2018-12-03T18:18:09.323Z,3.33
2018-12-03T18:20:39.014Z,3.70
2018-12-03T18:23:08.537Z,4.07
2018-12-03T18:25:38.059Z,3.90
2018-12-03T18:28:07.382Z,3.10
2018-12-03T18:30:36.928Z,5.07
2018-12-03T18:33:06.351Z,4.23
2018-12-03T18:35:37.225Z,5.90
2018-12-03T18:38:06.724Z,3.63
2018-12-03T18:40:36.259Z,3.87
2018-12-03T18:43:06.527Z,4.30
2018-12-03T18:45:36.027Z,2.43
2018-12-03T18:48:05.611Z,5.83
2018-12-03T18:50:37.246Z,6.17
2018-12-03T18:53:15.330Z,3.87
2018-12-03T18:55:45.241Z,5.47
2018-12-03T18:58:17.396Z,5.57
2018-12-03T19:00:46.758Z,4.43
2018-12-03T19:03:16.981Z,6.77
2018-12-03T19:05:46.276Z,5.20
2018-12-03T19:08:15.515Z,4.43
2018-12-03T19:10:47.503Z,5.77
2018-12-03T19:13:16.825Z,5.93
2018-12-03T19:15:46.111Z,6.87
2018-12-03T19:18:16.032Z,5.93
2018-12-03T19:20:46.332Z,6.20
2018-12-03T19:23:15.642Z,6.70
2018-12-03T19:25:45.073Z,8.90
2018-12-03T19:28:14.446Z,6.73
2018-12-03T19:30:44.525Z,5.73
2018-12-03T19:33:14.552Z,8.97
2018-12-03T19:35:44.004Z,10.57
2018-12-03T19:38:14.272Z,11.87
2018-12-03T19:40:43.782Z,10.47
2018-12-03T19:43:13.696Z,11.90
2018-12-03T19:45:43.421Z,8.67
2018-12-03T19:48:13.082Z,10.43
2018-12-03T19:50:42.480Z,7.27
2018-12-03T19:53:12.090Z,9.27
2018-12-03T19:55:41.681Z,8.57
2018-12-03T19:58:14.393Z,10.90
2018-12-03T20:00:45.802Z,9.20
2018-12-03T20:03:15.075Z,10.33
2018-12-03T20:05:44.492Z,5.93
2018-12-03T20:08:13.963Z,6.40
2018-12-03T20:10:44.269Z,8.97
2018-12-03T20:13:13.659Z,8.20
2018-12-03T20:15:43.139Z,10.20
2018-12-03T20:18:12.868Z,8.33
2018-12-03T20:20:46.559Z,10.33
2018-12-03T20:23:27.426Z,9.63
2018-12-03T20:26:04.971Z,11.33
2018-12-03T20:28:43.040Z,10.20
2018-12-03T20:31:40.087Z,12.87
2018-12-03T20:34:14.455Z,10.17
2018-12-03T20:36:52.852Z,12.93
2018-12-03T20:39:36.313Z,12.63
2018-12-03T20:42:06.822Z,10.93
2018-12-03T20:44:46.271Z,11.67
2018-12-03T20:47:23.892Z,10.03
2018-12-03T20:50:06.174Z,12.57
2018-12-03T20:52:36.600Z,12.73
2018-12-03T20:55:42.257Z,9.20
2018-12-03T20:58:11.652Z,11.20
2018-12-03T21:00:42.096Z,12.60
2018-12-03T21:03:12.125Z,11.10
2018-12-03T21:05:41.611Z,10.03
2018-12-03T21:08:11.169Z,9.87
2018-12-03T21:10:40.521Z,10.70
2018-12-03T21:13:10.362Z,10.20
2018-12-03T21:15:39.956Z,7.53
2018-12-03T21:18:09.770Z,9.33
2018-12-03T21:20:46.190Z,9.33
2018-12-03T21:23:15.654Z,11.00
2018-12-03T21:25:45.072Z,7.83
2018-12-03T21:28:14.297Z,5.73
2018-12-03T21:30:43.764Z,11.53
2018-12-03T21:33:13.216Z,12.23
2018-12-03T21:35:42.581Z,8.77
2018-12-03T21:38:11.915Z,9.80
2018-12-03T21:40:41.449Z,8.67
2018-12-03T21:43:10.709Z,14.80
2018-12-03T21:45:40.471Z,11.30
2018-12-03T21:48:09.847Z,14.00
2018-12-03T21:50:39.010Z,9.60
2018-12-03T21:53:08.354Z,8.47
2018-12-03T21:55:37.493Z,11.37
2018-12-03T21:58:06.683Z,6.57
2018-12-03T22:00:36.113Z,10.33
2018-12-03T22:03:05.804Z,8.83
2018-12-03T22:05:34.870Z,11.13
2018-12-03T22:08:03.750Z,8.80
2018-12-03T22:10:32.606Z,14.67
2018-12-03T22:13:02.122Z,8.07
2018-12-03T22:15:31.670Z,8.50
2018-12-03T22:18:00.577Z,8.30
2018-12-03T22:20:29.485Z,8.07
2018-12-03T22:22:58.574Z,9.20
2018-12-03T22:25:28.812Z,7.50
2018-12-03T22:27:57.672Z,7.40
2018-12-03T22:30:27.141Z,8.33
2018-12-03T22:32:56.644Z,10.20
2018-12-03T22:35:25.771Z,8.67
2018-12-03T22:37:54.889Z,6.20
2018-12-03T22:40:24.166Z,7.63
2018-12-03T22:42:53.097Z,9.53
2018-12-03T22:45:22.968Z,6.47
2018-12-03T22:47:52.108Z,8.20
2018-12-03T22:50:21.043Z,9.57
2018-12-03T22:52:49.925Z,5.23
2018-12-03T22:55:18.845Z,9.27
2018-12-03T22:57:48.136Z,6.33
2018-12-03T23:00:22.492Z,7.20
2018-12-03T23:02:51.487Z,5.80
2018-12-03T23:05:20.687Z,5.03
2018-12-03T23:07:49.769Z,7.47
2018-12-03T23:10:19.243Z,5.37
2018-12-03T23:12:48.126Z,7.27
2018-12-03T23:15:17.051Z,5.57
2018-12-03T23:17:45.927Z,6.00
2018-12-03T23:20:17.069Z,6.80
2018-12-03T23:22:46.253Z,5.50
2018-12-03T23:25:15.370Z,7.33
2018-12-03T23:27:44.324Z,5.80
2018-12-03T23:30:13.922Z,5.27
2018-12-03T23:32:42.799Z,7.10
2018-12-03T23:35:11.840Z,11.20
2018-12-03T23:37:41.448Z,9.23
2018-12-03T23:40:10.281Z,8.43
2018-12-03T23:42:39.245Z,5.43
2018-12-03T23:45:08.485Z,6.33
2018-12-03T23:47:37.404Z,7.43
2018-12-03T23:50:06.790Z,11.93
2018-12-03T23:52:35.733Z,15.67
2018-12-03T23:55:05.530Z,9.03
2018-12-03T23:57:34.445Z,10.70
